Time;durP1;ratioP1;P1;durP2;ratioP2;P2;SDS_P1;SDS_P2;PMS_P1;PMS_P2;Temp;Humidity;BMP_temperature;BMP_pressure;BME280_temperature;BME280_humidity;BME280_pressure;Samples;Min_cycle;Max_cycle;Signal;HPM_P1;HPM_P2
2022/08/24 00:00:23;;;;;;;6.10;1.90;;;19.20;93.50;;;20.10;86.39;98215.56;5021445;28;20471;-79
2022/08/24 00:02:53;;;;;;;8.43;2.77;;;19.20;93.40;;;20.13;86.17;98224.13;5020445;28;20470;-79
2022/08/24 00:05:23;;;;;;;5.77;2.63;;;19.20;93.30;;;20.14;85.84;98221.19;5021125;28;20532;-79
2022/08/24 00:07:52;;;;;;;4.87;3.00;;;19.20;93.30;;;20.08;86.35;98228.31;5021703;28;20478;-79
2022/08/24 00:10:21;;;;;;;3.23;1.80;;;19.20;93.50;;;20.01;87.00;98227.66;5019354;28;20497;-79
2022/08/24 00:12:49;;;;;;;4.33;2.57;;;19.00;93.60;;;20.00;87.13;98231.34;5016766;28;20512;-79
2022/08/24 00:15:19;;;;;;;3.13;1.93;;;19.00;93.70;;;20.00;87.17;98225.25;5018264;28;20474;-79
2022/08/24 00:17:47;;;;;;;8.13;2.33;;;19.00;93.60;;;19.98;87.36;98232.66;5020903;28;22263;-79
2022/08/24 00:20:17;;;;;;;3.40;2.07;;;19.00;93.80;;;19.95;87.74;98231.28;5023227;28;20461;-79
2022/08/24 00:22:47;;;;;;;4.57;2.00;;;18.90;93.80;;;19.89;88.02;98226.94;5026458;28;20497;-79
2022/08/24 00:25:19;;;;;;;6.40;1.80;;;18.90;93.80;;;19.84;88.43;98226.06;5023671;28;20470;-79
2022/08/24 00:27:48;;;;;;;3.07;2.00;;;18.90;93.90;;;19.81;88.62;98226.53;5023338;28;20494;-78
2022/08/24 00:30:19;;;;;;;3.87;2.40;;;18.80;94.10;;;19.77;89.28;98226.22;5023942;28;20532;-79
2022/08/24 00:32:51;;;;;;;7.37;2.50;;;18.70;94.10;;;19.75;89.09;98220.34;5026829;28;20466;-79
2022/08/24 00:35:22;;;;;;;5.83;2.43;;;18.80;93.90;;;19.68;89.67;98217.03;5022941;28;20957;-79
2022/08/24 00:37:53;;;;;;;3.73;1.80;;;18.80;94.10;;;19.65;90.05;98224.66;5023599;28;21010;-79
2022/08/24 00:40:32;;;;;;;4.77;2.50;;;18.70;94.20;;;19.69;89.49;98223.97;5022209;28;20573;-79
2022/08/24 00:43:03;;;;;;;5.00;2.20;;;18.80;93.90;;;19.72;88.90;98223.47;5026432;28;20466;-79
2022/08/24 00:45:40;;;;;;;8.30;2.93;;;18.90;93.80;;;19.72;88.83;98222.66;5022127;28;21027;-78
2022/08/24 00:48:21;;;;;;;5.70;2.93;;;18.80;93.70;;;19.66;89.37;98218.31;5024326;28;20458;-78
2022/08/24 00:50:58;;;;;;;3.70;2.80;;;18.80;94.00;;;19.53;90.54;98214.97;5022672;28;20496;-78
2022/08/24 00:53:43;;;;;;;4.17;1.93;;;18.60;94.40;;;19.52;90.98;98218.66;5025148;28;21531;-78
2022/08/24 00:56:17;;;;;;;2.33;1.87;;;18.50;94.30;;;19.49;91.24;98224.44;5024148;28;21404;-78
2022/08/24 00:58:50;;;;;;;2.90;2.10;;;18.50;94.40;;;19.47;91.21;98215.13;5022114;28;20461;-78
2022/08/24 01:01:26;;;;;;;5.20;2.40;;;18.50;94.40;;;19.41;91.76;98214.22;5023130;28;20472;-79
2022/08/24 01:03:58;;;;;;;2.90;1.83;;;18.50;94.60;;;19.42;91.89;98215.81;5024918;28;20515;-78
2022/08/24 01:06:28;;;;;;;4.53;2.00;;;18.40;94.50;;;19.39;91.80;98216.28;5023323;28;20470;-78
2022/08/24 01:08:58;;;;;;;3.30;2.13;;;18.40;94.50;;;19.40;91.73;98217.88;5021734;28;20814;-79
2022/08/24 01:11:30;;;;;;;4.53;2.07;;;18.40;94.50;;;19.33;92.44;98217.22;5021064;28;21487;-78
2022/08/24 01:14:04;;;;;;;4.07;2.00;;;18.40;94.60;;;19.29;93.18;98218.75;5026224;28;21378;-79
2022/08/24 01:19:32;;;;;;;3.20;2.33;;;18.30;94.80;;;19.25;93.62;98222.09;5023191;28;20461;-79
2022/08/24 01:22:21;;;;;;;7.33;2.33;;;18.30;94.70;;;19.19;94.26;98223.88;5024433;28;20476;-79
2022/08/24 01:24:51;;;;;;;4.70;2.10;;;18.20;95.00;;;19.19;94.30;98229.19;5022635;28;20466;-79
2022/08/24 01:27:20;;;;;;;3.17;1.80;;;18.30;95.00;;;19.19;94.38;98229.19;5023971;28;20467;-78
2022/08/24 01:29:58;;;;;;;1.63;1.43;;;18.30;94.80;;;19.25;94.04;98222.91;5024355;28;20465;-79
2022/08/24 01:32:28;;;;;;;3.40;2.10;;;18.30;94.90;;;19.24;93.60;98215.19;5023401;28;20469;-79
2022/08/24 01:34:58;;;;;;;2.27;1.90;;;18.30;94.80;;;19.20;94.33;98224.66;5024050;28;20454;-78
2022/08/24 01:37:26;;;;;;;4.47;2.40;;;18.20;95.00;;;19.19;94.21;98223.06;5021945;28;20498;-79
2022/08/24 01:40:03;;;;;;;3.10;1.90;;;18.20;94.90;;;19.20;94.39;98227.31;5024977;28;20468;-78
2022/08/24 01:42:33;;;;;;;2.60;2.00;;;18.30;94.80;;;19.13;95.01;98232.75;5023808;28;20536;-79
2022/08/24 01:45:04;;;;;;;3.40;1.90;;;18.20;94.90;;;19.05;95.43;98228.63;5023286;28;20462;-79
2022/08/24 01:47:32;;;;;;;3.90;2.27;;;18.20;95.00;;;19.00;96.02;98228.56;5023423;28;20528;-79
2022/08/24 01:50:02;;;;;;;4.00;2.10;;;18.10;95.10;;;18.94;96.60;98237.44;5023551;28;20463;-78
2022/08/24 01:52:31;;;;;;;5.73;2.00;;;18.00;95.30;;;18.96;96.55;98230.06;5022350;28;20500;-78
2022/08/24 01:55:21;;;;;;;2.70;1.90;;;18.00;95.20;;;18.92;97.02;98228.09;5022788;28;20462;-79
2022/08/24 01:57:50;;;;;;;6.07;2.43;;;17.90;95.40;;;18.92;96.81;98239.50;5022791;28;20877;-79
2022/08/24 02:00:19;;;;;;;4.53;1.93;;;18.00;95.30;;;18.98;96.78;98245.75;5021922;28;20505;-79
2022/08/24 02:02:48;;;;;;;2.63;1.83;;;17.90;95.40;;;18.96;96.19;98242.50;5022847;28;20474;-79
2022/08/24 02:05:17;;;;;;;2.73;2.10;;;18.00;95.10;;;18.87;96.83;98247.38;5022730;28;20470;-79
2022/08/24 02:07:46;;;;;;;3.27;2.10;;;17.90;95.40;;;18.81;97.65;98243.00;5024004;28;20547;-79
2022/08/24 02:10:15;;;;;;;2.20;1.53;;;17.90;95.50;;;18.74;98.64;98246.84;5021239;28;20525;-79
2022/08/24 02:12:56;;;;;;;5.10;2.23;;;17.80;95.60;;;18.75;98.53;98251.09;5024969;28;20494;-79
2022/08/24 02:15:29;;;;;;;4.00;2.00;;;17.90;95.40;;;18.71;99.15;98253.41;5024693;28;20529;-79
2022/08/24 02:17:59;;;;;;;8.90;2.00;;;17.90;95.60;;;18.68;99.82;98250.41;5022282;28;20526;-79
2022/08/24 02:20:29;;;;;;;4.60;2.00;;;17.80;95.60;;;18.64;100.00;98242.13;5024799;28;20839;-79
2022/08/24 02:22:58;;;;;;;5.80;1.97;;;17.80;95.90;;;18.71;100.00;98245.44;5021346;28;20553;-79
2022/08/24 02:25:29;;;;;;;6.27;2.00;;;17.80;96.00;;;18.77;99.63;98247.19;5023535;28;20856;-79
2022/08/24 02:28:00;;;;;;;6.73;2.60;;;17.70;95.80;;;18.74;99.78;98252.16;5021902;28;20465;-79
2022/08/24 02:30:31;;;;;;;4.20;2.30;;;17.70;95.90;;;18.64;100.00;98246.63;5020340;28;20976;-79
2022/08/24 02:33:00;;;;;;;5.40;1.83;;;17.60;96.00;;;18.57;100.00;98247.53;5023791;28;21044;-79
2022/08/24 02:35:30;;;;;;;3.03;1.80;;;17.60;96.00;;;18.51;100.00;98248.47;5020915;28;20462;-79
2022/08/24 02:37:59;;;;;;;4.03;2.00;;;17.50;96.20;;;18.52;100.00;98252.75;5021975;28;20501;-78
2022/08/24 02:40:28;;;;;;;3.80;2.07;;;17.50;96.20;;;18.57;100.00;98244.91;5023510;28;20462;-79
2022/08/24 02:42:58;;;;;;;3.90;1.83;;;17.60;95.80;;;18.62;100.00;98254.00;5025766;28;20446;-79
2022/08/24 02:45:27;;;;;;;6.90;2.20;;;17.70;95.80;;;18.62;99.26;98254.00;5020906;28;20465;-79
2022/08/24 02:47:57;;;;;;;3.53;1.80;;;17.70;95.70;;;18.50;100.00;98254.81;5022319;28;20844;-79
2022/08/24 02:50:27;;;;;;;3.40;1.60;;;17.60;96.20;;;18.42;100.00;98255.16;5022522;28;20466;-78
2022/08/24 02:52:57;;;;;;;3.33;1.73;;;17.50;96.20;;;18.38;100.00;98258.50;5021129;28;20466;-79
2022/08/24 02:55:26;;;;;;;3.77;2.23;;;17.50;96.20;;;18.36;100.00;98261.34;5023798;28;20469;-78
2022/08/24 02:57:54;;;;;;;3.13;2.20;;;17.50;96.10;;;18.32;100.00;98257.59;5025873;28;20549;-78
2022/08/24 03:00:26;;;;;;;5.63;2.67;;;17.50;96.00;;;18.35;100.00;98264.25;5021528;28;20521;-78
2022/08/24 03:02:55;;;;;;;6.73;1.97;;;17.50;96.00;;;18.34;100.00;98265.28;5020298;28;20474;-78
2022/08/24 03:05:26;;;;;;;3.20;2.03;;;17.40;96.20;;;18.34;100.00;98266.09;5020565;28;20899;-79
2022/08/24 03:07:56;;;;;;;5.03;1.97;;;17.40;96.10;;;18.32;100.00;98265.53;5018437;28;21330;-78
2022/08/24 03:10:25;;;;;;;3.97;2.23;;;17.40;96.40;;;18.25;100.00;98261.38;5020161;28;20540;-78
2022/08/24 03:12:54;;;;;;;3.33;2.00;;;17.40;96.30;;;18.19;100.00;98265.72;5023693;28;20474;-78
2022/08/24 03:15:28;;;;;;;2.60;2.00;;;17.30;96.50;;;18.21;100.00;98266.31;5023072;28;20553;-79
2022/08/24 03:17:58;;;;;;;3.87;1.97;;;17.30;96.40;;;18.22;100.00;98264.50;5019769;28;20482;-78
2022/08/24 03:20:27;;;;;;;2.80;2.10;;;17.30;96.30;;;18.20;100.00;98264.72;5018906;28;20518;-78
2022/08/24 03:22:55;;;;;;;4.40;1.87;;;17.30;96.50;;;18.20;100.00;98267.34;5022776;28;20465;-79
2022/08/24 03:25:25;;;;;;;4.10;2.20;;;17.30;96.30;;;18.15;100.00;98266.44;5020122;28;20469;-78
2022/08/24 03:27:54;;;;;;;3.93;1.87;;;17.30;96.60;;;18.17;100.00;98273.13;5023656;28;20465;-79
2022/08/24 03:30:24;;;;;;;10.87;2.40;;;17.20;96.60;;;18.07;100.00;98264.94;5021428;28;20462;-78
2022/08/24 03:32:54;;;;;;;2.63;1.90;;;17.20;96.70;;;18.06;100.00;98260.66;5023876;28;20459;-79
2022/08/24 03:35:23;;;;;;;3.63;2.10;;;17.10;96.80;;;18.06;100.00;98255.38;5022665;28;20989;-78
2022/08/24 03:37:53;;;;;;;3.13;1.93;;;17.10;97.00;;;18.09;100.00;98260.22;5022358;28;21118;-78
2022/08/24 03:40:22;;;;;;;3.30;2.10;;;17.10;97.10;;;18.10;100.00;98262.63;5021973;28;20457;-79
2022/08/24 03:42:53;;;;;;;4.40;2.00;;;17.00;97.10;;;18.05;100.00;98254.56;5018977;28;21187;-78
2022/08/24 03:45:23;;;;;;;3.00;2.00;;;17.10;97.00;;;18.05;100.00;98259.84;5022947;28;20462;-78
2022/08/24 03:47:54;;;;;;;5.27;2.07;;;17.10;97.00;;;18.02;100.00;98259.50;5021405;28;20466;-78
2022/08/24 03:50:24;;;;;;;2.30;1.80;;;17.00;97.20;;;18.00;100.00;98258.94;5020999;28;20528;-78
2022/08/24 03:52:53;;;;;;;6.07;2.00;;;17.00;97.30;;;17.96;100.00;98266.53;5020441;28;20473;-78
2022/08/24 03:55:23;;;;;;;2.93;2.40;;;17.00;97.20;;;17.94;100.00;98259.88;5022911;28;20508;-78
2022/08/24 03:57:52;;;;;;;5.27;1.70;;;17.00;97.30;;;17.93;100.00;98256.41;5019305;28;20489;-78
2022/08/24 04:00:20;;;;;;;2.57;1.90;;;16.90;97.40;;;17.93;100.00;98258.25;5023748;28;20438;-78
2022/08/24 04:02:49;;;;;;;3.40;2.10;;;16.90;97.50;;;17.93;100.00;98256.41;5023636;28;20953;-78
2022/08/24 04:05:19;;;;;;;3.23;1.90;;;16.90;97.40;;;17.89;100.00;98249.16;5020807;28;20473;-79
2022/08/24 04:07:48;;;;;;;4.93;1.80;;;16.90;97.40;;;17.84;100.00;98257.75;5017917;28;20950;-78
2022/08/24 04:10:16;;;;;;;6.70;2.07;;;16.90;97.50;;;17.80;100.00;98253.19;5018572;28;21008;-78
2022/08/24 04:12:46;;;;;;;5.70;2.30;;;16.80;97.60;;;17.79;100.00;98252.38;5016158;28;20588;-82
2022/08/24 04:15:14;;;;;;;2.63;2.07;;;16.90;97.40;;;17.83;100.00;98250.06;5021705;28;20469;-78
2022/08/24 04:17:43;;;;;;;2.97;2.10;;;16.90;97.50;;;17.83;100.00;98252.72;5022180;28;20517;-78
2022/08/24 04:20:13;;;;;;;3.50;1.70;;;16.80;97.70;;;17.80;100.00;98250.53;5019935;28;20536;-78
2022/08/24 04:22:44;;;;;;;5.47;2.10;;;16.80;97.70;;;17.82;100.00;98251.91;5017396;28;20470;-78
2022/08/24 04:25:13;;;;;;;5.63;1.77;;;16.80;97.50;;;17.84;100.00;98251.69;5019952;28;20466;-78
2022/08/24 04:27:42;;;;;;;5.03;2.07;;;16.80;97.50;;;17.77;100.00;98251.78;5019821;28;20461;-79
2022/08/24 04:30:14;;;;;;;4.70;1.90;;;16.80;97.60;;;17.73;100.00;98250.63;5018061;28;20470;-77
2022/08/24 04:32:42;;;;;;;3.10;1.90;;;16.80;97.60;;;17.70;100.00;98261.66;5024566;28;20516;-81
2022/08/24 04:35:11;;;;;;;7.00;1.93;;;16.80;97.70;;;17.70;100.00;98261.66;5020577;28;20545;-80
2022/08/24 04:37:40;;;;;;;5.47;1.80;;;16.80;97.80;;;17.74;100.00;98256.72;5021786;28;20474;-77
2022/08/24 04:40:12;;;;;;;4.50;2.30;;;16.70;97.70;;;17.74;100.00;98268.09;5019361;28;20463;-77
2022/08/24 04:42:41;;;;;;;10.50;2.63;;;16.70;97.70;;;17.70;100.00;98271.44;5019578;28;20463;-78
2022/08/24 04:45:11;;;;;;;4.67;1.80;;;16.70;97.90;;;17.67;100.00;98266.63;5017519;28;20987;-78
2022/08/24 04:47:44;;;;;;;2.60;1.80;;;16.70;98.00;;;17.67;100.00;98277.19;5022864;28;20557;-84
2022/08/24 04:50:13;;;;;;;2.50;1.80;;;16.70;97.80;;;17.67;100.00;98272.69;5017768;28;20466;-78
2022/08/24 04:52:45;;;;;;;2.50;1.87;;;16.70;97.70;;;17.67;100.00;98279.84;5020911;28;20470;-78
2022/08/24 04:55:17;;;;;;;4.60;2.90;;;16.70;97.70;;;17.60;100.00;98283.38;5019519;28;20465;-78
2022/08/24 04:57:46;;;;;;;2.20;1.83;;;16.70;98.00;;;17.60;100.00;98286.00;5018274;28;20529;-84
2022/08/24 05:00:17;;;;;;;5.03;3.30;;;16.70;98.10;;;17.56;100.00;98276.91;5017092;28;21059;-80
2022/08/24 05:02:46;;;;;;;6.60;2.23;;;16.70;98.00;;;17.56;100.00;98284.84;5021715;28;20469;-78
2022/08/24 05:05:17;;;;;;;4.27;1.80;;;16.70;98.20;;;17.58;100.00;98292.56;5020147;28;20488;-78
2022/08/24 05:07:47;;;;;;;2.27;1.77;;;16.60;98.20;;;17.59;100.00;98291.53;5019888;28;20929;-78
2022/08/24 05:10:23;;;;;;;5.73;2.10;;;16.60;98.50;;;17.63;100.00;98289.25;5026520;28;20855;-78
2022/08/24 05:12:56;;;;;;;2.17;1.60;;;16.60;98.60;;;17.64;100.00;98293.50;5026771;28;20430;-78
2022/08/24 05:15:25;;;;;;;4.77;2.00;;;16.60;98.40;;;17.69;100.00;98297.09;5027064;28;20977;-78
2022/08/24 05:17:53;;;;;;;2.57;2.00;;;16.60;98.40;;;17.65;100.00;98295.09;5024644;28;20473;-78
2022/08/24 05:20:23;;;;;;;3.13;1.97;;;16.60;98.60;;;17.68;100.00;98300.75;5026104;28;20508;-78
2022/08/24 05:22:53;;;;;;;2.40;2.00;;;16.60;98.70;;;17.71;100.00;98295.00;5025766;28;20450;-78
2022/08/24 05:25:25;;;;;;;3.40;2.10;;;16.70;98.60;;;17.70;100.00;98297.91;5026230;28;20489;-78
2022/08/24 05:27:54;;;;;;;2.87;2.10;;;16.70;98.60;;;17.69;100.00;98293.63;5025516;28;20494;-78
2022/08/24 05:30:22;;;;;;;3.93;2.10;;;16.70;98.70;;;17.71;100.00;98300.31;5027016;28;20508;-78
2022/08/24 05:32:51;;;;;;;4.97;1.77;;;16.70;98.80;;;17.74;100.00;98301.69;5023600;28;20462;-78
2022/08/24 05:35:20;;;;;;;3.43;2.27;;;16.70;98.80;;;17.79;100.00;98302.63;5025048;28;20466;-79
2022/08/24 05:37:49;;;;;;;6.70;2.47;;;16.80;98.80;;;17.83;100.00;98308.28;5022569;28;20466;-78
2022/08/24 05:40:26;;;;;;;5.40;2.20;;;16.80;98.60;;;17.85;100.00;98311.50;5021929;28;20524;-78
2022/08/24 05:43:01;;;;;;;2.13;1.90;;;16.90;98.60;;;17.85;100.00;98308.84;5023121;28;20511;-77
2022/08/24 05:45:42;;;;;;;4.97;2.57;;;16.90;98.80;;;17.89;100.00;98312.66;5021663;28;20468;-78
2022/08/24 05:48:11;;;;;;;2.80;2.00;;;16.90;98.90;;;17.95;100.00;98312.56;5020476;28;20987;-77
2022/08/24 05:50:40;;;;;;;3.30;2.53;;;16.90;98.80;;;17.95;100.00;98312.56;5023103;28;20459;-78
2022/08/24 05:53:10;;;;;;;3.93;2.40;;;16.90;98.80;;;17.98;100.00;98316.56;5023314;28;20464;-78
2022/08/24 05:55:42;;;;;;;3.77;2.20;;;17.00;98.80;;;18.02;100.00;98318.53;5022126;28;20466;-77
2022/08/24 05:58:10;;;;;;;4.33;2.80;;;17.10;98.80;;;18.07;100.00;98312.59;5021763;28;20462;-77
2022/08/24 06:00:44;;;;;;;5.73;2.30;;;17.10;98.70;;;18.12;100.00;98312.69;5021760;28;20469;-77
2022/08/24 06:03:13;;;;;;;5.00;2.00;;;17.10;98.80;;;18.18;100.00;98314.44;5021296;28;20469;-77
2022/08/24 06:05:46;;;;;;;4.27;2.37;;;17.20;98.70;;;18.21;100.00;98308.69;5022615;28;20581;-77
2022/08/24 06:08:15;;;;;;;5.73;2.83;;;17.20;98.60;;;18.24;100.00;98307.41;5020633;28;20544;-77
2022/08/24 06:10:47;;;;;;;11.03;3.57;;;17.30;98.70;;;18.30;100.00;98315.25;5021207;28;20562;-78
2022/08/24 06:13:17;;;;;;;4.63;2.53;;;17.30;98.70;;;18.35;100.00;98311.91;5021951;28;21038;-84
2022/08/24 06:15:46;;;;;;;8.83;5.10;;;17.40;98.70;;;18.37;100.00;98304.53;5023154;28;20461;-77
2022/08/24 06:18:35;;;;;;;4.17;2.70;;;17.40;98.60;;;18.42;100.00;98305.47;5023727;28;20450;-77
2022/08/24 06:21:07;;;;;;;4.20;2.23;;;17.50;98.70;;;18.47;100.00;98308.22;5019012;28;20497;-78
2022/08/24 06:23:38;;;;;;;3.57;2.10;;;17.50;98.50;;;18.53;100.00;98317.13;5023037;28;20565;-77
2022/08/24 06:28:56;;;;;;;3.70;2.40;;;17.60;98.50;;;18.62;100.00;98310.44;5022981;28;20980;-77
2022/08/24 06:31:26;;;;;;;3.63;2.90;;;17.70;98.60;;;18.68;100.00;98322.75;5022759;28;20483;-77
2022/08/24 06:33:56;;;;;;;4.10;2.50;;;17.70;98.50;;;18.73;100.00;98314.94;5021995;28;20474;-77
2022/08/24 06:36:24;;;;;;;3.90;2.43;;;17.80;98.40;;;18.78;100.00;98319.53;5021783;28;20986;-77
2022/08/24 06:38:53;;;;;;;7.60;2.70;;;17.80;98.30;;;18.84;100.00;98321.25;5018331;28;20850;-77
2022/08/24 06:41:24;;;;;;;9.93;3.03;;;17.80;98.30;;;18.89;100.00;98318.69;5022936;28;20466;-77
2022/08/24 06:43:54;;;;;;;9.23;2.70;;;17.90;98.10;;;18.95;100.00;98323.06;5021826;28;20458;-78
2022/08/24 06:46:22;;;;;;;4.13;2.60;;;18.00;98.20;;;19.01;100.00;98319.50;5021803;28;20948;-77
2022/08/24 06:48:55;;;;;;;10.00;2.73;;;18.00;98.00;;;19.06;100.00;98324.88;5021404;28;20462;-77
2022/08/24 06:51:25;;;;;;;4.77;2.23;;;18.10;97.90;;;19.11;100.00;98319.69;5023523;28;20492;-77
2022/08/24 06:53:55;;;;;;;5.83;2.87;;;18.20;98.00;;;19.17;100.00;98315.28;5022082;28;20501;-78
2022/08/24 06:56:26;;;;;;;9.00;2.80;;;18.20;97.90;;;19.22;100.00;98315.41;5021006;28;20883;-77
2022/08/24 06:58:55;;;;;;;3.77;2.37;;;18.30;97.90;;;19.27;100.00;98320.78;5022431;28;20458;-77
2022/08/24 07:01:27;;;;;;;5.67;2.40;;;18.30;97.90;;;19.32;100.00;98313.75;5019023;28;20494;-78
2022/08/24 07:03:56;;;;;;;7.10;2.53;;;18.40;98.10;;;19.37;100.00;98316.47;5017367;28;20935;-77
2022/08/24 07:06:25;;;;;;;3.33;2.60;;;18.40;97.70;;;19.41;100.00;98317.66;5020201;28;20973;-77
2022/08/24 07:08:55;;;;;;;5.30;2.80;;;18.40;97.50;;;19.47;100.00;98321.22;5021913;28;20900;-78
2022/08/24 07:11:25;;;;;;;4.20;2.80;;;18.50;97.40;;;19.53;100.00;98320.28;5020509;28;20475;-78
2022/08/24 07:13:54;;;;;;;10.30;4.33;;;18.60;97.40;;;19.59;100.00;98320.13;5021514;28;20964;-83
2022/08/24 07:16:23;;;;;;;14.00;5.67;;;18.60;97.50;;;19.66;100.00;98324.47;5022710;28;20466;-77
2022/08/24 07:18:52;;;;;;;5.40;3.60;;;18.70;97.50;;;19.71;100.00;98314.78;5022558;28;20469;-77
2022/08/24 07:21:22;;;;;;;8.20;3.00;;;18.80;97.40;;;19.77;100.00;98320.97;5019983;28;20528;-77
2022/08/24 07:23:56;;;;;;;5.50;2.93;;;18.80;97.40;;;19.83;100.00;98314.69;5022254;28;20473;-77
2022/08/24 07:26:30;;;;;;;4.53;3.00;;;18.90;97.20;;;19.87;100.00;98316.63;5022472;28;20466;-78
2022/08/24 07:29:05;;;;;;;8.90;2.73;;;18.90;97.10;;;19.93;100.00;98313.00;5021328;28;21032;-78
2022/08/24 07:31:35;;;;;;;3.37;2.47;;;19.00;97.10;;;20.00;100.00;98310.19;5021413;28;20532;-78
2022/08/24 07:34:05;;;;;;;4.10;2.77;;;19.10;97.20;;;20.05;100.00;98312.94;5022440;28;20576;-77
2022/08/24 07:36:37;;;;;;;4.17;2.40;;;19.10;96.50;;;20.12;100.00;98323.41;5022725;28;20474;-78
2022/08/24 07:39:11;;;;;;;4.63;2.03;;;19.20;96.30;;;20.17;99.99;98324.28;5003989;28;20584;-81
2022/08/24 07:41:44;;;;;;;6.03;2.60;;;19.30;96.10;;;20.24;98.99;98322.28;5020600;28;20738;-77
2022/08/24 07:44:34;;;;;;;7.47;3.10;;;19.40;96.30;;;20.31;97.42;98320.28;5018022;28;21275;-77
2022/08/24 07:47:04;;;;;;;2.93;2.47;;;19.50;95.90;;;20.37;96.08;98322.00;5020537;28;20469;-77
2022/08/24 07:49:53;;;;;;;7.33;3.17;;;19.50;94.90;;;20.44;94.77;98321.84;5022166;28;20949;-77
2022/08/24 07:52:21;;;;;;;365.63;209.37;;;19.60;95.50;;;20.50;93.67;98320.84;5017002;28;20552;-77
2022/08/24 07:54:50;;;;;;;39.23;22.60;;;19.70;95.10;;;20.56;91.45;98322.53;5022223;28;20470;-77
2022/08/24 07:57:20;;;;;;;5.93;3.90;;;19.80;94.80;;;20.63;90.56;98325.00;5020706;28;20887;-77
2022/08/24 07:59:49;;;;;;;119.17;77.57;;;19.80;94.50;;;20.69;90.33;98322.16;5022193;28;20522;-78
2022/08/24 08:02:17;;;;;;;45.40;27.83;;;19.90;94.40;;;20.77;89.61;98323.59;5026725;28;20969;-78
2022/08/24 08:04:47;;;;;;;10.00;4.67;;;20.00;94.20;;;20.83;87.92;98326.09;5023420;28;20457;-77
2022/08/24 08:07:16;;;;;;;9.63;2.53;;;20.10;93.90;;;20.90;87.11;98331.22;5022838;28;20526;-77
2022/08/24 08:09:45;;;;;;;6.93;2.80;;;20.10;93.60;;;20.95;86.42;98332.13;5022500;28;20493;-77
2022/08/24 08:12:14;;;;;;;5.43;2.83;;;20.20;93.20;;;21.03;85.32;98331.66;5022760;28;20466;-77
2022/08/24 08:14:44;;;;;;;6.20;2.60;;;20.30;93.40;;;21.08;83.86;98333.59;5023953;28;20466;-78
2022/08/24 08:17:13;;;;;;;7.23;2.87;;;20.40;93.30;;;21.15;83.88;98334.25;5023338;28;20485;-77
2022/08/24 08:19:42;;;;;;;4.60;2.67;;;20.40;93.10;;;21.22;83.13;98339.38;5022868;28;20465;-77
2022/08/24 08:24:57;;;;;;;4.53;2.47;;;20.60;92.70;;;21.39;78.03;98335.59;5023354;28;20989;-77
2022/08/24 08:27:26;;;;;;;4.60;2.70;;;20.80;92.10;;;21.46;78.91;98336.22;5024880;28;20981;-78
2022/08/24 08:29:56;;;;;;;6.30;2.53;;;20.80;92.30;;;21.54;78.48;98333.09;5021471;28;20539;-78
2022/08/24 08:32:25;;;;;;;3.83;2.43;;;20.80;92.10;;;21.63;77.87;98332.66;5024620;28;20454;-77
2022/08/24 08:34:53;;;;;;;6.17;2.93;;;20.90;91.80;;;21.70;78.22;98333.25;5022268;28;21558;-77
2022/08/24 08:37:26;;;;;;;3.27;2.30;;;21.00;92.10;;;21.76;77.98;98329.59;5023590;28;20465;-77
2022/08/24 08:39:55;;;;;;;4.50;2.50;;;21.10;92.00;;;21.81;77.25;98327.78;5024718;28;20581;-77
2022/08/24 08:42:45;;;;;;;5.67;2.50;;;21.10;91.90;;;21.91;75.77;98333.22;5024584;28;20597;-77
2022/08/24 08:45:54;;;;;;;8.43;2.70;;;21.20;91.30;;;21.99;74.90;98326.66;5024893;28;20967;-78
2022/08/24 08:49:03;;;;;;;3.40;2.27;;;21.30;91.50;;;22.10;74.17;98320.34;5011949;28;20468;-77
2022/08/24 08:52:02;;;;;;;18.47;3.07;;;21.40;91.00;;;22.16;73.19;98319.31;4962134;28;20468;-77
2022/08/24 08:54:43;;;;;;;4.00;2.40;;;21.50;91.00;;;22.25;72.65;98323.13;5025993;28;20458;-77
2022/08/24 08:57:39;;;;;;;4.87;2.40;;;21.60;91.00;;;22.32;71.74;98318.38;5027746;28;20458;-77
2022/08/24 09:00:21;;;;;;;2.67;2.27;;;21.70;90.80;;;22.40;69.52;98315.25;5024554;28;20493;-77
2022/08/24 09:03:43;;;;;;;10.87;2.70;;;21.80;90.20;;;22.51;68.50;98316.13;5027603;28;20485;-77
2022/08/24 09:06:43;;;;;;;4.00;3.00;;;21.90;90.30;;;22.62;66.04;98316.97;5027458;28;20446;-77
2022/08/24 09:09:45;;;;;;;10.30;2.90;;;22.00;89.10;;;22.72;65.99;98309.88;5028494;28;21004;-77
2022/08/24 09:12:31;;;;;;;3.20;2.13;;;22.10;89.30;;;22.82;66.42;98312.59;5025960;28;20948;-77
2022/08/24 09:15:26;;;;;;;6.90;2.60;;;22.20;89.20;;;22.93;66.17;98316.13;5025618;28;20468;-77
2022/08/24 09:18:17;;;;;;;4.33;2.40;;;22.30;88.70;;;23.01;66.04;98318.31;5025576;28;20469;-77
2022/08/24 09:21:27;;;;;;;3.70;2.63;;;22.40;89.30;;;23.08;65.68;98305.53;5024872;28;20494;-77
2022/08/24 09:24:30;;;;;;;5.03;2.70;;;22.50;89.40;;;23.18;65.77;98313.56;5027946;28;20446;-77
2022/08/24 09:27:23;;;;;;;4.10;2.63;;;22.50;89.20;;;23.25;63.77;98306.13;5024635;28;20505;-78
2022/08/24 09:30:09;;;;;;;6.77;2.33;;;22.70;88.20;;;23.33;63.63;98308.25;5026490;28;20493;-77
2022/08/24 09:33:15;;;;;;;5.83;2.20;;;22.80;88.00;;;23.43;62.63;98302.16;5027665;28;20847;-77
2022/08/24 09:36:08;;;;;;;6.13;2.50;;;22.80;87.90;;;23.51;62.16;98302.47;5026370;28;21034;-77
2022/08/24 09:38:58;;;;;;;3.23;2.37;;;23.00;87.40;;;23.59;61.91;98305.69;5024348;28;20462;-77
2022/08/24 09:42:33;;;;;;;3.77;2.77;;;23.00;87.10;;;23.68;61.00;98294.22;5023951;28;20489;-77
2022/08/24 09:45:49;;;;;;;7.77;2.40;;;23.10;86.70;;;23.83;58.79;98296.13;5002555;28;20501;-77
2022/08/24 09:49:01;;;;;;;8.13;2.13;;;23.30;85.20;;;23.99;57.16;98287.03;4990496;28;20968;-77
2022/08/24 09:52:14;;;;;;;12.07;2.43;;;23.40;84.10;;;24.13;56.96;98298.81;5024477;28;20473;-78
2022/08/24 09:55:15;;;;;;;3.80;2.30;;;23.50;84.50;;;24.22;57.13;98294.56;5025213;28;20730;-77
2022/08/24 09:58:02;;;;;;;5.10;2.47;;;23.60;84.50;;;24.28;55.82;98290.78;5024585;28;20461;-77
2022/08/24 10:00:38;;;;;;;5.50;2.37;;;23.70;83.60;;;24.36;55.54;98286.78;5027407;28;20867;-77
2022/08/24 10:03:28;;;;;;;5.60;2.33;;;23.80;83.50;;;24.43;55.31;98289.97;5024826;28;20874;-77
2022/08/24 10:06:26;;;;;;;3.80;2.50;;;23.80;83.50;;;24.49;55.24;98273.66;5026722;28;20906;-77
2022/08/24 10:09:19;;;;;;;4.93;1.83;;;24.00;83.30;;;24.59;54.55;98277.38;5026379;28;21280;-77
2022/08/24 10:12:04;;;;;;;4.50;2.00;;;24.00;82.20;;;24.64;52.17;98274.69;5025488;28;20930;-77
2022/08/24 10:14:50;;;;;;;2.90;2.20;;;24.10;81.10;;;24.79;51.20;98279.97;5028129;28;20505;-77
2022/08/24 10:17:34;;;;;;;2.13;1.70;;;24.20;79.80;;;24.88;51.36;98275.72;5025474;28;20859;-77
2022/08/24 10:20:22;;;;;;;4.60;2.17;;;24.30;80.30;;;24.93;51.67;98273.81;5026950;28;20454;-77
2022/08/24 10:23:37;;;;;;;4.10;2.10;;;24.40;80.60;;;25.03;50.74;98268.41;5026989;28;20587;-77
2022/08/24 10:26:22;;;;;;;4.77;2.07;;;24.50;79.90;;;25.14;49.39;98271.03;5026751;28;20458;-77
2022/08/24 10:29:26;;;;;;;3.60;1.90;;;24.60;78.20;;;25.25;46.91;98270.72;5025691;28;20467;-77
2022/08/24 10:32:18;;;;;;;4.10;2.57;;;24.80;76.10;;;25.36;46.37;98271.47;5026485;28;20548;-77
2022/08/24 10:35:04;;;;;;;3.97;2.67;;;24.90;75.00;;;25.50;46.90;98267.91;5026671;28;20454;-77
2022/08/24 10:41:40;;;;;;;3.50;2.13;;;25.10;74.20;;;25.78;44.51;98254.88;5024707;28;20977;-77
2022/08/24 10:44:46;;;;;;;4.57;2.70;;;25.30;73.80;;;25.92;44.22;98250.47;5026657;28;20516;-77
2022/08/24 10:47:25;;;;;;;5.43;2.90;;;25.40;73.00;;;26.08;44.46;98257.28;5025038;28;20456;-77
2022/08/24 10:50:40;;;;;;;3.87;2.27;;;25.60;73.20;;;26.17;43.04;98250.25;5024356;28;20454;-77
2022/08/24 10:53:25;;;;;;;3.03;2.20;;;25.70;72.20;;;26.24;43.08;98245.34;5023762;28;20884;-77
2022/08/24 10:56:18;;;;;;;4.77;2.60;;;25.70;72.00;;;26.36;42.83;98253.03;5025590;28;20461;-77
2022/08/24 10:59:07;;;;;;;3.47;2.00;;;25.90;72.10;;;26.43;42.87;98246.25;5024429;28;20498;-77
2022/08/24 11:01:38;;;;;;;5.37;2.40;;;25.80;71.70;;;26.49;43.02;98247.78;5023578;28;20491;-77